Wednesday, October 18, 2017, 3:39 AM EDT
Back to Local

KNYC, New York City Central Park

Location: New York, NY, United States Lat: 40.783
Local Time: 3:39 AM EDT ( 7:39 GMT) Lon: -73.967
Time Zone: US/Eastern Elev: 157 ft

Show me the last for .
Show Decoded

2017-10-18 02:51 METAR KNYC 180651Z AUTO VRB05KT 10SM CLR 11/03 A3031 RMK AO2 SLP254 T01060033 $
                 =
2017-10-18 01:51 METAR KNYC 180551Z AUTO 10SM CLR 11/02 A3031 RMK AO2 SLP257 T01110022 10128
                 20111 56003 $ =
2017-10-18 00:51 METAR KNYC 180451Z AUTO 24007KT 10SM CLR 12/03 A3031 RMK AO2 SLP257 T01170028
                 401440056 $ =
2017-10-17 23:51 METAR KNYC 180351Z AUTO 26003KT 10SM CLR 12/03 A3031 RMK AO2 SLP256 T01170033 $
                 =
2017-10-17 22:51 METAR KNYC 180251Z AUTO VRB05KT 10SM CLR 12/03 A3032 RMK AO2 SLP259 T01220028
                 53008 $ =
2017-10-17 21:51 METAR KNYC 180151Z AUTO 10SM CLR 13/03 A3031 RMK AO2 SLP255 T01280028 $ =
2017-10-17 20:51 METAR KNYC 180051Z AUTO VRB03KT 10SM CLR 12/04 A3030 RMK AO2 SLP253 T01220044 $
                 =
2017-10-17 18:51 METAR KNYC 172251Z AUTO VRB05KT 10SM CLR 13/02 A3028 RMK AO2 SLP247 T01330017 $
                 =
2017-10-17 17:51 METAR KNYC 172151Z AUTO VRB03KT 10SM CLR 13/01 A3027 RMK AO2 SLP244 T01330006 $
                 =
2017-10-17 16:51 METAR KNYC 172051Z AUTO 00000KT 10SM CLR 14/00 A3027 RMK AO2 SLP243 T01440000
                 56014 $ =
2017-10-17 15:51 METAR KNYC 171951Z AUTO 27004KT 10SM CLR 14/01 A3029 RMK AO2 SLP248 T01440006 $
                 =
2017-10-17 14:51 METAR KNYC 171851Z AUTO VRB03KT 10SM CLR 14/M02 A3030 RMK AO2 SLP251 T01441017 $
                 =
2017-10-17 13:51 METAR KNYC 171751Z AUTO VRB04KT 10SM CLR 13/M02 A3031 RMK AO2 SLP257 T01331017
                 10139 20061 58015 $ =
2017-10-17 12:51 METAR KNYC 171651Z AUTO 26004KT 10SM CLR 12/M02 A3034 RMK AO2 SLP264 T01221017 $
                 =
2017-10-17 11:51 METAR KNYC 171551Z AUTO VRB03KT 10SM CLR 11/M01 A3035 RMK AO2 SLP270 T01111006 $
                 =
2017-10-17 10:51 METAR KNYC 171451Z AUTO VRB05KT 10SM CLR 09/00 A3036 RMK AO2 SLP273 T00940000
                 50002 $ =
2017-10-17 09:51 METAR KNYC 171351Z AUTO VRB04KT 10SM CLR 08/02 A3037 RMK AO2 SLP276 T00830017 $
                 =
2017-10-17 08:51 METAR KNYC 171251Z AUTO VRB03KT 10SM CLR 07/02 A3037 RMK AO2 SLP277 T00720017 $
                 =
2017-10-17 07:51 METAR KNYC 171151Z AUTO 00000KT 10SM CLR 06/01 A3035 RMK AO2 SLP270 T00610011
                 10078 20056 51021 $ =
2017-10-17 06:51 METAR KNYC 171051Z AUTO VRB03KT 10SM CLR 06/01 A3034 RMK AO2 SLP266 T00610011 $
                 =
2017-10-17 05:51 METAR KNYC 170951Z AUTO 04003KT 10SM CLR 06/01 A3032 RMK AO2 SLP257 T00610006 $
                 =
2017-10-17 04:51 METAR KNYC 170851Z AUTO VRB04KT 10SM CLR 07/00 A3029 RMK AO2 SLP249 T00670000
                 53009 $ =
2017-10-17 03:51 METAR KNYC 170751Z AUTO VRB03KT 10SM CLR 07/M01 A3027 RMK AO2 SLP243 T00671006 $
                 =

Support USWX by starting your Amazon purchase here.